Time;durP1;ratioP1;P1;durP2;ratioP2;P2;SDS_P1;SDS_P2;PMS_P1;PMS_P2;Temp;Humidity;BMP_temperature;BMP_pressure;BME280_temperature;BME280_humidity;BME280_pressure;Samples;Min_cycle;Max_cycle;Signal;HPM_P1;HPM_P2
2022/03/17 00:00:44;;;;;;;31.80;10.95;;;;;;;;;;5007178;28;20038;-84
2022/03/17 00:03:45;;;;;;;27.17;10.77;;;;;;;;;;5101726;22;20059;-84
2022/03/17 00:06:13;;;;;;;26.92;9.43;;;;;;;;;;5059933;28;20044;-84
2022/03/17 00:08:41;;;;;;;19.77;8.43;;;;;;;;;;5059988;28;20520;-84
2022/03/17 00:11:54;;;;;;;30.92;12.15;;;;;;;;;;5081391;28;20112;-84
2022/03/17 00:15:04;;;;;;;33.47;12.05;;;;;;;;;;5072433;28;20048;-80
2022/03/17 00:17:31;;;;;;;26.20;9.13;;;;;;;;;;5054763;28;20048;-81
2022/03/17 00:19:59;;;;;;;28.35;10.88;;;;;;;;;;5042942;28;20485;-81
2022/03/17 00:22:28;;;;;;;29.75;12.40;;;;;;;;;;5074923;28;20063;-81
2022/03/17 00:25:56;;;;;;;34.60;12.95;;;;;;;;;;5054586;28;20052;-86
2022/03/17 00:30:02;;;;;;;34.25;10.60;;;;;;;;;;5047029;28;20092;-85
2022/03/17 00:34:08;;;;;;;31.38;11.20;;;;;;;;;;5013017;28;20046;-85
2022/03/17 00:38:37;;;;;;;22.08;8.95;;;;;;;;;;4965740;28;20078;-85
2022/03/17 00:43:04;;;;;;;32.80;12.80;;;;;;;;;;4930114;29;20091;-85
2022/03/17 00:46:54;;;;;;;34.67;13.30;;;;;;;;;;4891357;29;20057;-84
2022/03/17 00:49:46;;;;;;;32.65;12.55;;;;;;;;;;4864614;29;20061;-84
2022/03/17 00:57:49;;;;;;;21.60;9.63;;;;;;;;;;4871384;29;20571;-81
2022/03/17 01:00:18;;;;;;;41.60;16.75;;;;;;;;;;4872780;29;20049;-81
2022/03/17 01:02:47;;;;;;;42.75;15.38;;;;;;;;;;4867652;29;20117;-81
2022/03/17 01:05:16;;;;;;;36.17;14.15;;;;;;;;;;4868665;29;20726;-81
2022/03/17 01:07:45;;;;;;;39.15;15.85;;;;;;;;;;4889479;29;20088;-81
2022/03/17 01:10:16;;;;;;;37.25;14.88;;;;;;;;;;4900133;29;20348;-81
2022/03/17 01:12:46;;;;;;;38.13;14.38;;;;;;;;;;4905153;29;20455;-80
2022/03/17 01:48:16;;;;;;;37.85;13.27;;;;;;;;;;5059027;28;20071;-80
2022/03/17 01:50:42;;;;;;;30.50;12.45;;;;;;;;;;5062667;28;20049;-81
2022/03/17 01:53:10;;;;;;;22.33;8.70;;;;;;;;;;5043063;28;20151;-80
2022/03/17 01:55:39;;;;;;;44.92;15.50;;;;;;;;;;5058075;28;20118;-80
2022/03/17 01:58:07;;;;;;;42.47;16.55;;;;;;;;;;5056696;28;20036;-80
2022/03/17 02:00:34;;;;;;;41.05;14.82;;;;;;;;;;5038403;28;20211;-81
2022/03/17 02:03:02;;;;;;;44.92;16.90;;;;;;;;;;5054169;28;20102;-80
2022/03/17 02:05:30;;;;;;;39.33;15.52;;;;;;;;;;5057049;28;20382;-80
2022/03/17 02:31:32;;;;;;;48.88;16.98;;;;;;;;;;5057878;28;20401;-80
2022/03/17 02:34:00;;;;;;;39.75;15.23;;;;;;;;;;5055186;28;20044;-81
2022/03/17 03:48:11;;;;;;;50.35;19.27;;;;;;;;;;5054227;28;20950;-82
2022/03/17 03:50:39;;;;;;;48.63;18.88;;;;;;;;;;5055003;28;20401;-81
2022/03/17 03:53:07;;;;;;;49.22;18.75;;;;;;;;;;5059918;28;20045;-80
2022/03/17 03:55:35;;;;;;;52.97;19.58;;;;;;;;;;5056865;28;20040;-81
2022/03/17 03:58:03;;;;;;;52.97;20.80;;;;;;;;;;5059356;28;20525;-81
2022/03/17 04:02:59;;;;;;;47.05;17.42;;;;;;;;;;5058812;28;20135;-81
2022/03/17 05:00:46;;;;;;;51.72;19.98;;;;;;;;;;5044566;28;20063;-81
2022/03/17 05:03:14;;;;;;;45.67;18.63;;;;;;;;;;5056990;28;20045;-81
2022/03/17 05:28:34;;;;;;;49.30;20.65;;;;;;;;;;5061219;28;20037;-80
2022/03/17 05:31:02;;;;;;;55.20;21.80;;;;;;;;;;5041325;28;20041;-81
2022/03/17 06:10:32;;;;;;;48.58;21.02;;;;;;;;;;5062979;28;20159;-80
2022/03/17 06:13:03;;;;;;;43.67;19.05;;;;;;;;;;5059612;28;20049;-79
2022/03/17 06:15:31;;;;;;;47.50;20.75;;;;;;;;;;5059334;28;20037;-80
2022/03/17 06:18:00;;;;;;;50.75;22.42;;;;;;;;;;5055469;28;20047;-80
2022/03/17 06:20:35;;;;;;;43.70;19.95;;;;;;;;;;5052755;28;20033;-80
2022/03/17 06:23:06;;;;;;;48.50;21.15;;;;;;;;;;5056717;28;20064;-80
2022/03/17 06:25:36;;;;;;;47.35;20.58;;;;;;;;;;5045577;28;20028;-80
2022/03/17 06:28:08;;;;;;;56.47;22.48;;;;;;;;;;5055259;28;20048;-80
2022/03/17 06:30:37;;;;;;;48.28;20.63;;;;;;;;;;5040836;28;20911;-80
2022/03/17 06:33:07;;;;;;;50.97;21.90;;;;;;;;;;5056533;28;20547;-79
2022/03/17 06:35:37;;;;;;;49.92;20.38;;;;;;;;;;5059368;28;20036;-80
2022/03/17 06:38:08;;;;;;;49.58;21.88;;;;;;;;;;5054023;28;20060;-79
2022/03/17 06:40:37;;;;;;;51.58;22.40;;;;;;;;;;5054836;28;20043;-79
2022/03/17 06:43:05;;;;;;;49.97;21.90;;;;;;;;;;5054857;28;20048;-77
2022/03/17 06:45:33;;;;;;;50.42;20.98;;;;;;;;;;5047561;28;20470;-77
2022/03/17 06:48:00;;;;;;;49.80;21.67;;;;;;;;;;5058743;28;20052;-77
2022/03/17 06:50:30;;;;;;;49.75;21.42;;;;;;;;;;5019529;28;20065;-77
2022/03/17 06:52:57;;;;;;;51.08;21.40;;;;;;;;;;5054380;28;20498;-76
2022/03/17 06:55:25;;;;;;;50.05;22.45;;;;;;;;;;5056008;28;20155;-77
2022/03/17 06:57:53;;;;;;;48.58;21.05;;;;;;;;;;5055511;28;20090;-77
2022/03/17 07:00:21;;;;;;;49.92;21.38;;;;;;;;;;5052326;28;20033;-77
2022/03/17 07:02:49;;;;;;;50.67;21.48;;;;;;;;;;5044082;28;20110;-78
2022/03/17 07:05:17;;;;;;;50.60;20.50;;;;;;;;;;5015196;28;20128;-77
2022/03/17 07:07:45;;;;;;;51.05;24.92;;;;;;;;;;5031670;28;20140;-78
2022/03/17 07:10:15;;;;;;;52.22;22.48;;;;;;;;;;5052406;28;20486;-78
2022/03/17 07:12:43;;;;;;;50.08;21.70;;;;;;;;;;5054172;28;20049;-78
2022/03/17 07:15:12;;;;;;;51.75;21.88;;;;;;;;;;5055220;28;20118;-78
2022/03/17 07:17:40;;;;;;;52.05;23.00;;;;;;;;;;5052997;28;20094;-78
2022/03/17 07:20:15;;;;;;;46.10;21.15;;;;;;;;;;5038454;28;20029;-80
2022/03/17 07:22:46;;;;;;;50.67;22.08;;;;;;;;;;5051023;28;20098;-77
2022/03/17 07:25:17;;;;;;;49.92;22.83;;;;;;;;;;5050962;28;20040;-78
2022/03/17 07:27:47;;;;;;;50.00;22.80;;;;;;;;;;5051846;28;20040;-77
2022/03/17 07:30:19;;;;;;;54.75;24.33;;;;;;;;;;5034641;28;20033;-77
2022/03/17 07:32:48;;;;;;;48.70;22.17;;;;;;;;;;5033694;28;20126;-78
2022/03/17 07:35:16;;;;;;;52.70;22.75;;;;;;;;;;5042911;28;20052;-77
2022/03/17 07:37:45;;;;;;;54.40;23.48;;;;;;;;;;5047535;28;20060;-77
2022/03/17 07:40:15;;;;;;;54.20;22.67;;;;;;;;;;5051634;28;20078;-77
2022/03/17 07:42:43;;;;;;;51.95;23.55;;;;;;;;;;5040191;28;20127;-77
2022/03/17 07:45:19;;;;;;;49.35;21.77;;;;;;;;;;5048067;28;20041;-77
2022/03/17 07:47:53;;;;;;;54.60;25.13;;;;;;;;;;5029966;28;20426;-77
2022/03/17 07:50:21;;;;;;;50.22;23.75;;;;;;;;;;5042018;28;20107;-77
2022/03/17 07:52:49;;;;;;;52.47;22.42;;;;;;;;;;5042762;28;20056;-77
2022/03/17 07:55:17;;;;;;;52.60;23.75;;;;;;;;;;5050662;28;20041;-77
2022/03/17 07:57:45;;;;;;;52.85;23.35;;;;;;;;;;5040887;28;20043;-81
2022/03/17 08:00:13;;;;;;;56.47;23.52;;;;;;;;;;5037782;28;20037;-81
2022/03/17 08:02:42;;;;;;;55.00;23.40;;;;;;;;;;5036597;28;20053;-81
2022/03/17 08:05:13;;;;;;;52.05;22.98;;;;;;;;;;5024508;28;20379;-81
2022/03/17 08:07:41;;;;;;;54.78;24.02;;;;;;;;;;5054682;28;20051;-80
2022/03/17 08:10:09;;;;;;;50.28;23.30;;;;;;;;;;5052610;28;20036;-80
2022/03/17 08:12:37;;;;;;;58.60;24.60;;;;;;;;;;5055616;28;20402;-80
2022/03/17 08:15:05;;;;;;;49.53;22.77;;;;;;;;;;5049869;28;20144;-80
2022/03/17 08:17:33;;;;;;;51.55;23.98;;;;;;;;;;5050138;28;20068;-79
2022/03/17 08:20:03;;;;;;;46.80;22.02;;;;;;;;;;5053283;28;20045;-81
2022/03/17 08:22:32;;;;;;;54.80;25.65;;;;;;;;;;5040562;28;20049;-78
2022/03/17 08:24:59;;;;;;;51.60;23.05;;;;;;;;;;5057948;28;20464;-80
2022/03/17 08:27:28;;;;;;;49.75;22.00;;;;;;;;;;5049706;28;20040;-80
2022/03/17 08:29:55;;;;;;;47.50;22.63;;;;;;;;;;5057487;28;20077;-79
2022/03/17 08:32:25;;;;;;;50.63;23.25;;;;;;;;;;5031419;28;20052;-77
2022/03/17 08:34:53;;;;;;;50.75;23.00;;;;;;;;;;5045343;28;20033;-80
2022/03/17 08:37:21;;;;;;;59.65;25.33;;;;;;;;;;5053207;28;20131;-80
2022/03/17 08:39:49;;;;;;;51.08;24.08;;;;;;;;;;5035478;28;20094;-80
2022/03/17 08:42:17;;;;;;;47.80;23.17;;;;;;;;;;5050325;28;20045;-80
2022/03/17 08:44:45;;;;;;;47.03;23.02;;;;;;;;;;5052116;28;20466;-79
2022/03/17 08:50:03;;;;;;;49.72;24.52;;;;;;;;;;5045842;28;20060;-80
2022/03/17 08:52:31;;;;;;;48.92;22.92;;;;;;;;;;5048845;28;20120;-80
2022/03/17 08:54:59;;;;;;;44.78;22.50;;;;;;;;;;5049177;28;20402;-80
2022/03/17 08:57:27;;;;;;;53.22;24.20;;;;;;;;;;5046227;28;20048;-80
2022/03/17 08:59:55;;;;;;;50.75;23.77;;;;;;;;;;5049345;28;20064;-80
2022/03/17 09:02:23;;;;;;;53.00;25.00;;;;;;;;;;5048890;28;20093;-80
2022/03/17 09:04:50;;;;;;;52.60;25.05;;;;;;;;;;5048826;28;20044;-80
2022/03/17 09:07:19;;;;;;;49.83;23.00;;;;;;;;;;5028316;28;20047;-82
2022/03/17 09:09:47;;;;;;;53.50;25.67;;;;;;;;;;5026886;28;20060;-82
2022/03/17 09:12:16;;;;;;;50.60;23.45;;;;;;;;;;5011233;28;20148;-82
2022/03/17 09:14:44;;;;;;;50.83;23.05;;;;;;;;;;5025154;28;20073;-81
2022/03/17 09:17:11;;;;;;;46.78;23.20;;;;;;;;;;5045375;28;20045;-82
2022/03/17 09:19:39;;;;;;;46.85;24.25;;;;;;;;;;5041084;28;20056;-81
2022/03/17 09:22:08;;;;;;;51.38;25.20;;;;;;;;;;5047601;28;21752;-81
2022/03/17 09:24:34;;;;;;;47.75;22.35;;;;;;;;;;5045311;28;20044;-81
2022/03/17 09:27:02;;;;;;;55.33;23.52;;;;;;;;;;5048707;28;20107;-81
2022/03/17 09:29:31;;;;;;;51.65;24.80;;;;;;;;;;5040011;28;20646;-81
2022/03/17 09:32:00;;;;;;;52.85;24.55;;;;;;;;;;5041025;28;20031;-80
2022/03/17 09:34:27;;;;;;;58.20;25.25;;;;;;;;;;5044208;28;20044;-81
2022/03/17 09:36:55;;;;;;;48.70;24.30;;;;;;;;;;5013674;28;20173;-80
2022/03/17 09:42:08;;;;;;;54.75;25.05;;;;;;;;;;5044223;28;20121;-80
2022/03/17 09:44:37;;;;;;;56.88;26.50;;;;;;;;;;5037142;28;20049;-80
2022/03/17 09:47:09;;;;;;;53.03;26.00;;;;;;;;;;5012962;28;20049;-81
2022/03/17 09:49:37;;;;;;;54.80;24.17;;;;;;;;;;5054329;28;20059;-80
2022/03/17 09:52:11;;;;;;;54.78;25.33;;;;;;;;;;5048560;28;20041;-81
2022/03/17 09:54:40;;;;;;;55.45;24.42;;;;;;;;;;5036052;28;20524;-81
2022/03/17 09:57:08;;;;;;;56.30;26.83;;;;;;;;;;5047734;28;20383;-80
2022/03/17 09:59:37;;;;;;;59.47;27.20;;;;;;;;;;5048377;28;20052;-81
2022/03/17 10:02:07;;;;;;;56.95;25.50;;;;;;;;;;5046281;28;20120;-80
2022/03/17 10:04:39;;;;;;;54.20;25.42;;;;;;;;;;5048911;28;20051;-80
2022/03/17 10:07:07;;;;;;;60.30;25.83;;;;;;;;;;5015797;28;20045;-81
2022/03/17 10:09:34;;;;;;;60.30;27.00;;;;;;;;;;5037424;28;20137;-81
2022/03/17 10:12:06;;;;;;;57.38;26.48;;;;;;;;;;5035435;28;20043;-81
2022/03/17 10:14:41;;;;;;;63.28;27.25;;;;;;;;;;5038373;28;20068;-77
2022/03/17 10:17:28;;;;;;;68.55;28.35;;;;;;;;;;5031955;28;20038;-77
2022/03/17 10:20:13;;;;;;;60.05;26.77;;;;;;;;;;5015007;28;20041;-77
2022/03/17 10:22:46;;;;;;;58.10;25.80;;;;;;;;;;5058169;28;20117;-77
2022/03/17 10:25:26;;;;;;;62.05;26.33;;;;;;;;;;5054989;28;20120;-77
2022/03/17 10:27:56;;;;;;;64.45;28.10;;;;;;;;;;5055863;28;20127;-77
2022/03/17 10:30:36;;;;;;;57.60;26.23;;;;;;;;;;5045527;28;20505;-77
2022/03/17 10:33:14;;;;;;;54.88;25.83;;;;;;;;;;5046228;28;20849;-77
2022/03/17 10:35:45;;;;;;;58.45;27.50;;;;;;;;;;5053323;28;20538;-77
2022/03/17 10:38:17;;;;;;;63.05;27.33;;;;;;;;;;5033261;28;20037;-77
2022/03/17 10:40:59;;;;;;;60.00;26.95;;;;;;;;;;5050228;28;20048;-77
2022/03/17 10:43:29;;;;;;;58.60;26.17;;;;;;;;;;5043764;28;20076;-77
2022/03/17 10:46:07;;;;;;;60.17;26.65;;;;;;;;;;5048890;28;20037;-80
2022/03/17 10:48:55;;;;;;;66.78;28.02;;;;;;;;;;5022770;28;20042;-81
2022/03/17 10:51:34;;;;;;;57.72;24.98;;;;;;;;;;5054920;28;20056;-81
2022/03/17 10:54:11;;;;;;;54.25;25.50;;;;;;;;;;5046429;28;20488;-81
2022/03/17 10:56:39;;;;;;;61.72;28.13;;;;;;;;;;5030157;28;20769;-81
2022/03/17 10:59:09;;;;;;;59.70;26.40;;;;;;;;;;5033410;28;20049;-80
2022/03/17 11:01:46;;;;;;;64.18;27.48;;;;;;;;;;5035510;28;20029;-80
2022/03/17 11:04:15;;;;;;;65.57;28.13;;;;;;;;;;5047135;28;20485;-80
2022/03/17 11:06:42;;;;;;;67.28;30.20;;;;;;;;;;5048726;28;20141;-80
2022/03/17 11:09:10;;;;;;;67.85;27.75;;;;;;;;;;5044798;28;20147;-80
2022/03/17 11:11:39;;;;;;;62.95;29.33;;;;;;;;;;5029911;28;20045;-79
2022/03/17 11:14:09;;;;;;;58.83;26.27;;;;;;;;;;5045846;28;21555;-80
2022/03/17 11:16:46;;;;;;;63.45;28.70;;;;;;;;;;5047603;28;20786;-80
2022/03/17 11:19:17;;;;;;;57.90;26.33;;;;;;;;;;5048637;28;20132;-76
2022/03/17 11:21:48;;;;;;;63.95;26.42;;;;;;;;;;5042283;28;20415;-76
2022/03/17 11:24:21;;;;;;;59.45;26.95;;;;;;;;;;5039494;28;20194;-76
2022/03/17 11:27:10;;;;;;;57.35;25.35;;;;;;;;;;5039080;28;20804;-76
2022/03/17 11:29:44;;;;;;;57.65;25.58;;;;;;;;;;5039291;28;20049;-76
2022/03/17 11:32:48;;;;;;;56.95;24.98;;;;;;;;;;5022479;28;20044;-76
2022/03/17 11:35:18;;;;;;;41.92;19.40;;;;;;;;;;5037584;28;20033;-75
2022/03/17 11:37:47;;;;;;;31.65;14.40;;;;;;;;;;5022315;28;20034;-76
2022/03/17 11:40:19;;;;;;;27.95;13.07;;;;;;;;;;5031746;28;20812;-75
2022/03/17 11:42:52;;;;;;;25.17;10.82;;;;;;;;;;5041818;28;20577;-76
2022/03/17 11:45:20;;;;;;;22.50;10.07;;;;;;;;;;5049981;28;20060;-76
2022/03/17 11:47:57;;;;;;;21.45;8.90;;;;;;;;;;5048326;28;20489;-76
2022/03/17 11:50:31;;;;;;;22.80;8.52;;;;;;;;;;5023547;28;20114;-78
2022/03/17 11:52:59;;;;;;;22.67;7.63;;;;;;;;;;5042659;28;20123;-77
2022/03/17 11:55:42;;;;;;;17.77;7.55;;;;;;;;;;5043034;28;20044;-80
2022/03/17 11:58:17;;;;;;;17.77;6.75;;;;;;;;;;5036900;28;20142;-79
2022/03/17 12:00:55;;;;;;;21.33;6.88;;;;;;;;;;5047017;28;20469;-80
2022/03/17 12:03:37;;;;;;;20.10;7.00;;;;;;;;;;5049395;28;20909;-80
2022/03/17 12:06:19;;;;;;;18.60;6.60;;;;;;;;;;5051219;28;20424;-80
2022/03/17 12:08:46;;;;;;;13.90;6.28;;;;;;;;;;5050021;28;20776;-81
2022/03/17 12:11:16;;;;;;;18.50;6.10;;;;;;;;;;5051811;28;20037;-81
2022/03/17 12:14:03;;;;;;;18.45;6.18;;;;;;;;;;5051567;28;20053;-77
2022/03/17 12:16:40;;;;;;;18.63;6.40;;;;;;;;;;5051006;28;20123;-77
2022/03/17 12:19:08;;;;;;;17.25;5.57;;;;;;;;;;5044011;28;20095;-77
2022/03/17 12:21:58;;;;;;;12.82;6.20;;;;;;;;;;5049936;28;20026;-76
2022/03/17 12:24:58;;;;;;;14.25;5.05;;;;;;;;;;5033178;28;20465;-76
2022/03/17 12:27:30;;;;;;;14.18;4.80;;;;;;;;;;5042269;28;20032;-76
2022/03/17 12:30:16;;;;;;;13.30;4.65;;;;;;;;;;5052300;28;20090;-76
2022/03/17 12:32:48;;;;;;;12.25;4.32;;;;;;;;;;5031102;28;20072;-76
2022/03/17 12:35:19;;;;;;;15.60;4.72;;;;;;;;;;5045311;28;20072;-76
2022/03/17 12:37:47;;;;;;;9.00;4.50;;;;;;;;;;5044119;28;20874;-76
2022/03/17 12:40:17;;;;;;;7.55;3.60;;;;;;;;;;5051102;28;20117;-76
2022/03/17 12:42:51;;;;;;;12.05;3.88;;;;;;;;;;5019506;28;20078;-76
2022/03/17 12:45:24;;;;;;;11.43;3.75;;;;;;;;;;5055105;28;20326;-76
2022/03/17 12:47:59;;;;;;;12.27;3.17;;;;;;;;;;5037861;28;20103;-76
2022/03/17 12:50:29;;;;;;;10.25;2.88;;;;;;;;;;5052951;28;20099;-76
2022/03/17 12:52:56;;;;;;;8.30;2.67;;;;;;;;;;5050834;28;20040;-76
2022/03/17 12:55:24;;;;;;;8.35;2.67;;;;;;;;;;5052500;28;20116;-76
2022/03/17 12:57:54;;;;;;;10.07;1.90;;;;;;;;;;5038789;28;20064;-76
2022/03/17 13:00:26;;;;;;;8.38;1.65;;;;;;;;;;5050764;28;21261;-76
2022/03/17 13:02:58;;;;;;;6.18;1.92;;;;;;;;;;5047085;28;20175;-76
2022/03/17 13:08:15;;;;;;;5.05;1.13;;;;;;;;;;5057046;28;20037;-76
2022/03/17 13:16:15;;;;;;;6.72;1.20;;;;;;;;;;5050586;28;20087;-76
2022/03/17 13:18:50;;;;;;;9.63;1.17;;;;;;;;;;5039177;28;21066;-76
2022/03/17 13:21:19;;;;;;;7.43;1.63;;;;;;;;;;4985875;28;20453;-80
2022/03/17 13:23:47;;;;;;;9.10;1.55;;;;;;;;;;5046247;28;20043;-80
2022/03/17 13:26:25;;;;;;;5.93;1.52;;;;;;;;;;5023385;28;20052;-80
2022/03/17 13:29:02;;;;;;;4.63;1.13;;;;;;;;;;5061210;28;20041;-80
2022/03/17 13:31:35;;;;;;;14.43;1.60;;;;;;;;;;5024214;28;20454;-77
2022/03/17 13:34:03;;;;;;;4.68;1.25;;;;;;;;;;5037556;28;20037;-77
2022/03/17 13:37:00;;;;;;;8.82;1.40;;;;;;;;;;5053727;28;20087;-77
2022/03/17 13:39:34;;;;;;;9.85;1.75;;;;;;;;;;5021246;28;20432;-77
2022/03/17 13:42:08;;;;;;;6.38;1.40;;;;;;;;;;5050615;28;20051;-77
2022/03/17 13:44:52;;;;;;;5.20;1.50;;;;;;;;;;5055056;28;20029;-77
2022/03/17 13:47:42;;;;;;;7.63;1.20;;;;;;;;;;5050266;28;20149;-77
2022/03/17 13:50:23;;;;;;;13.70;1.67;;;;;;;;;;5051721;28;20035;-77
2022/03/17 13:53:24;;;;;;;10.98;2.05;;;;;;;;;;5054750;28;20042;-77
2022/03/17 13:55:55;;;;;;;8.57;1.35;;;;;;;;;;5051236;28;20040;-77
2022/03/17 13:58:26;;;;;;;11.88;1.30;;;;;;;;;;5051337;28;20853;-76
2022/03/17 14:01:16;;;;;;;10.13;1.45;;;;;;;;;;5051234;28;20045;-80
2022/03/17 14:03:46;;;;;;;14.30;1.52;;;;;;;;;;5050142;28;20048;-80
2022/03/17 14:06:19;;;;;;;12.43;1.77;;;;;;;;;;5049464;28;20040;-80
2022/03/17 14:08:52;;;;;;;11.52;1.48;;;;;;;;;;5052059;28;20048;-80
2022/03/17 14:11:25;;;;;;;10.48;1.90;;;;;;;;;;5057275;28;20047;-80
2022/03/17 14:13:55;;;;;;;10.90;1.30;;;;;;;;;;5054700;28;20786;-80
2022/03/17 14:16:24;;;;;;;11.85;1.75;;;;;;;;;;5046521;28;20094;-80
2022/03/17 14:18:54;;;;;;;9.45;1.45;;;;;;;;;;5052237;28;20048;-80
2022/03/17 14:21:25;;;;;;;12.45;1.52;;;;;;;;;;5047572;28;20077;-80
2022/03/17 14:24:12;;;;;;;13.15;2.20;;;;;;;;;;5046971;28;20044;-80
2022/03/17 14:26:42;;;;;;;14.18;2.03;;;;;;;;;;5035562;28;20045;-80
2022/03/17 14:29:12;;;;;;;9.50;1.60;;;;;;;;;;5031734;28;20068;-80
2022/03/17 14:31:43;;;;;;;9.32;1.25;;;;;;;;;;5052864;28;20044;-80
2022/03/17 14:34:11;;;;;;;9.63;2.08;;;;;;;;;;5054624;28;20071;-79
2022/03/17 14:36:45;;;;;;;7.13;2.33;;;;;;;;;;5049971;28;20041;-79
2022/03/17 14:39:13;;;;;;;9.27;1.88;;;;;;;;;;5053741;28;20060;-79
2022/03/17 14:41:41;;;;;;;14.98;1.80;;;;;;;;;;5054123;28;20051;-80
2022/03/17 14:44:09;;;;;;;15.05;2.10;;;;;;;;;;5057269;28;20650;-80
2022/03/17 14:46:37;;;;;;;11.88;2.42;;;;;;;;;;5052329;28;20045;-80
2022/03/17 14:49:08;;;;;;;14.35;1.88;;;;;;;;;;5047520;28;20063;-79
2022/03/17 14:51:39;;;;;;;12.10;1.48;;;;;;;;;;5044133;28;20045;-79
2022/03/17 14:54:26;;;;;;;12.90;1.40;;;;;;;;;;5051303;28;20040;-79
2022/03/17 14:56:54;;;;;;;9.30;1.60;;;;;;;;;;5046511;28;20037;-80
2022/03/17 14:59:22;;;;;;;15.43;1.83;;;;;;;;;;5050873;28;20078;-79
2022/03/17 15:01:50;;;;;;;10.48;1.50;;;;;;;;;;5028833;28;20385;-79
2022/03/17 15:04:18;;;;;;;7.22;1.67;;;;;;;;;;5036038;28;20054;-79
2022/03/17 15:06:46;;;;;;;10.88;2.30;;;;;;;;;;5051758;28;20098;-79
2022/03/17 15:09:14;;;;;;;7.68;1.55;;;;;;;;;;5052269;28;20494;-80
2022/03/17 15:11:42;;;;;;;12.05;1.70;;;;;;;;;;5051169;28;20038;-79
2022/03/17 15:14:10;;;;;;;10.95;1.75;;;;;;;;;;5049938;28;20041;-79
2022/03/17 15:16:38;;;;;;;10.55;1.90;;;;;;;;;;5055987;28;20099;-80
2022/03/17 15:19:06;;;;;;;15.32;1.90;;;;;;;;;;5056450;28;20135;-80
2022/03/17 15:21:35;;;;;;;11.32;2.13;;;;;;;;;;5046058;28;20037;-80
2022/03/17 15:24:03;;;;;;;7.28;1.58;;;;;;;;;;5019496;28;20088;-80
2022/03/17 15:26:30;;;;;;;10.98;1.45;;;;;;;;;;5050913;28;20390;-80
2022/03/17 15:31:45;;;;;;;10.10;1.77;;;;;;;;;;5054883;28;20106;-80
2022/03/17 15:34:13;;;;;;;12.63;1.83;;;;;;;;;;5038634;28;20125;-80
2022/03/17 15:36:40;;;;;;;10.02;1.60;;;;;;;;;;5051298;28;20172;-80
2022/03/17 15:39:10;;;;;;;13.13;1.55;;;;;;;;;;5056764;28;20104;-80
2022/03/17 15:41:39;;;;;;;9.20;1.98;;;;;;;;;;5043035;28;20432;-80
2022/03/17 15:44:06;;;;;;;9.07;1.27;;;;;;;;;;5055153;28;20037;-80
2022/03/17 15:46:34;;;;;;;12.93;1.70;;;;;;;;;;5023921;28;20119;-80
2022/03/17 15:49:02;;;;;;;12.73;1.63;;;;;;;;;;5055327;28;20045;-80
2022/03/17 15:51:30;;;;;;;7.68;1.60;;;;;;;;;;5038921;28;20123;-81
2022/03/17 15:53:58;;;;;;;11.48;1.67;;;;;;;;;;5036007;28;20029;-80
2022/03/17 15:56:29;;;;;;;12.20;1.70;;;;;;;;;;5075876;28;20052;-80
2022/03/17 15:58:56;;;;;;;12.52;2.35;;;;;;;;;;5037271;28;20040;-80
2022/03/17 16:01:26;;;;;;;8.55;1.92;;;;;;;;;;5060007;28;20044;-80
2022/03/17 16:03:56;;;;;;;17.92;2.72;;;;;;;;;;5031979;28;20028;-80
2022/03/17 16:06:24;;;;;;;11.98;3.38;;;;;;;;;;5057213;28;20148;-80
2022/03/17 16:08:52;;;;;;;17.50;2.70;;;;;;;;;;5058968;28;20051;-80
2022/03/17 16:16:51;;;;;;;8.88;1.90;;;;;;;;;;5059551;28;20051;-80
2022/03/17 16:19:19;;;;;;;14.10;2.10;;;;;;;;;;5058339;28;20066;-80
2022/03/17 16:21:47;;;;;;;14.98;2.90;;;;;;;;;;5041763;28;20131;-78
2022/03/17 16:24:15;;;;;;;12.45;2.33;;;;;;;;;;5055561;28;20098;-78
2022/03/17 16:26:43;;;;;;;16.23;2.80;;;;;;;;;;5052423;28;20944;-77
2022/03/17 16:29:11;;;;;;;12.90;2.20;;;;;;;;;;5053600;28;20045;-76
2022/03/17 16:31:45;;;;;;;11.32;1.65;;;;;;;;;;5052842;28;20040;-76
2022/03/17 16:34:15;;;;;;;7.80;1.60;;;;;;;;;;5027500;28;20095;-76
2022/03/17 16:36:47;;;;;;;10.05;1.65;;;;;;;;;;5043081;28;20032;-76
2022/03/17 16:39:21;;;;;;;11.00;1.58;;;;;;;;;;5026679;28;20096;-76
2022/03/17 16:41:50;;;;;;;10.25;1.92;;;;;;;;;;5050297;28;20040;-76
2022/03/17 16:44:17;;;;;;;10.05;1.73;;;;;;;;;;5053447;28;20040;-76
2022/03/17 16:46:47;;;;;;;9.05;2.75;;;;;;;;;;5033650;28;20445;-76
2022/03/17 16:49:15;;;;;;;10.48;1.65;;;;;;;;;;5055500;28;20052;-77
2022/03/17 16:51:44;;;;;;;9.60;1.67;;;;;;;;;;5053428;28;20046;-76
2022/03/17 16:54:11;;;;;;;11.80;1.65;;;;;;;;;;5049831;28;20064;-76
2022/03/17 16:56:40;;;;;;;12.13;1.50;;;;;;;;;;5033248;28;20068;-77
2022/03/17 16:59:08;;;;;;;12.80;1.80;;;;;;;;;;5052877;28;21041;-76
2022/03/17 17:01:35;;;;;;;10.65;1.48;;;;;;;;;;5051082;28;20055;-76
2022/03/17 17:04:03;;;;;;;15.82;1.73;;;;;;;;;;5055629;28;20044;-76
2022/03/17 17:06:31;;;;;;;13.38;2.17;;;;;;;;;;5056032;28;20094;-77
2022/03/17 17:08:59;;;;;;;14.82;1.70;;;;;;;;;;5054874;28;20052;-76
2022/03/17 17:11:27;;;;;;;11.50;1.60;;;;;;;;;;5023936;28;20071;-75
2022/03/17 17:13:55;;;;;;;12.13;1.80;;;;;;;;;;5057648;28;20045;-75
2022/03/17 17:16:23;;;;;;;7.82;1.60;;;;;;;;;;5038118;28;20520;-76
2022/03/17 17:18:51;;;;;;;8.52;1.80;;;;;;;;;;5048914;28;20049;-76
2022/03/17 17:21:19;;;;;;;6.18;2.00;;;;;;;;;;5052849;28;20036;-76
2022/03/17 17:32:11;;;;;;;12.82;2.42;;;;;;;;;;5057748;28;20043;-75
2022/03/17 17:34:41;;;;;;;9.60;1.50;;;;;;;;;;5058372;28;20354;-75
2022/03/17 17:37:07;;;;;;;12.85;1.65;;;;;;;;;;5047184;28;20048;-75
2022/03/17 17:39:35;;;;;;;14.48;2.00;;;;;;;;;;5056628;28;20040;-75
2022/03/17 17:42:09;;;;;;;15.02;2.17;;;;;;;;;;5055731;28;20052;-75
2022/03/17 17:44:35;;;;;;;8.40;1.60;;;;;;;;;;5057567;28;20083;-81
2022/03/17 17:47:05;;;;;;;12.52;2.03;;;;;;;;;;5059432;28;20041;-81
2022/03/17 17:49:34;;;;;;;6.82;1.45;;;;;;;;;;5057723;28;20046;-81
2022/03/17 17:52:02;;;;;;;9.15;1.90;;;;;;;;;;5057218;28;20048;-80
2022/03/17 17:54:29;;;;;;;8.23;1.48;;;;;;;;;;5041216;28;20041;-81
2022/03/17 17:57:00;;;;;;;9.32;1.92;;;;;;;;;;5061026;28;20072;-81
2022/03/17 17:59:27;;;;;;;20.92;1.90;;;;;;;;;;5059119;28;20621;-80
2022/03/17 18:01:56;;;;;;;14.77;1.90;;;;;;;;;;5050309;28;20059;-80
2022/03/17 18:04:26;;;;;;;12.05;1.73;;;;;;;;;;5055473;28;20043;-80
2022/03/17 18:06:56;;;;;;;6.03;1.67;;;;;;;;;;5037857;28;20036;-79
2022/03/17 18:09:24;;;;;;;13.00;2.17;;;;;;;;;;5054521;28;20036;-80
2022/03/17 18:11:52;;;;;;;8.80;1.58;;;;;;;;;;5033899;28;20099;-81
2022/03/17 18:14:20;;;;;;;8.77;2.72;;;;;;;;;;5034304;28;20037;-81
2022/03/17 18:16:49;;;;;;;9.75;1.80;;;;;;;;;;5059796;28;20093;-81
2022/03/17 18:19:16;;;;;;;14.75;2.25;;;;;;;;;;5027115;28;20131;-83
2022/03/17 18:21:43;;;;;;;12.88;2.33;;;;;;;;;;5038064;28;20155;-80
2022/03/17 18:24:12;;;;;;;14.68;2.92;;;;;;;;;;5056553;28;20728;-80
2022/03/17 18:26:39;;;;;;;11.65;2.53;;;;;;;;;;5053410;28;20059;-81
2022/03/17 18:29:07;;;;;;;11.70;2.20;;;;;;;;;;5038706;28;20160;-81
2022/03/17 18:31:37;;;;;;;13.65;2.42;;;;;;;;;;5035888;28;20037;-80
2022/03/17 18:34:05;;;;;;;11.55;2.30;;;;;;;;;;5037662;28;20181;-81
2022/03/17 18:36:33;;;;;;;15.25;2.72;;;;;;;;;;5054673;28;20299;-80
2022/03/17 18:39:01;;;;;;;9.35;1.98;;;;;;;;;;5054120;28;20179;-81
2022/03/17 18:41:29;;;;;;;7.03;1.88;;;;;;;;;;5024734;28;20080;-78
2022/03/17 18:43:57;;;;;;;12.93;2.00;;;;;;;;;;5056870;28;20803;-80
2022/03/17 18:46:25;;;;;;;9.25;2.65;;;;;;;;;;5038701;28;20032;-80
2022/03/17 18:48:53;;;;;;;11.35;1.80;;;;;;;;;;5044162;28;20068;-80
2022/03/17 18:51:21;;;;;;;11.45;3.10;;;;;;;;;;5056104;28;20843;-80
2022/03/17 18:53:49;;;;;;;10.20;2.03;;;;;;;;;;5039422;28;20127;-77
2022/03/17 18:56:17;;;;;;;10.80;2.97;;;;;;;;;;5019763;28;20040;-77
2022/03/17 18:58:45;;;;;;;13.98;2.80;;;;;;;;;;5040252;28;20065;-78
2022/03/17 19:01:15;;;;;;;13.15;2.67;;;;;;;;;;5046941;28;20468;-79
2022/03/17 19:03:44;;;;;;;10.77;2.60;;;;;;;;;;5057316;28;20082;-79
2022/03/17 19:06:11;;;;;;;12.02;2.50;;;;;;;;;;5052889;28;20041;-79
2022/03/17 19:08:39;;;;;;;7.10;2.50;;;;;;;;;;5019977;28;20029;-79
2022/03/17 19:11:07;;;;;;;14.65;3.15;;;;;;;;;;5055104;28;20051;-79
2022/03/17 19:13:35;;;;;;;9.18;2.30;;;;;;;;;;5045946;28;20402;-79
2022/03/17 19:16:04;;;;;;;12.38;2.70;;;;;;;;;;5053913;28;20041;-80
2022/03/17 19:18:31;;;;;;;12.20;2.72;;;;;;;;;;5047384;28;20059;-79
2022/03/17 19:20:59;;;;;;;12.02;2.92;;;;;;;;;;5041323;28;20052;-80
2022/03/17 19:23:27;;;;;;;18.58;2.85;;;;;;;;;;5038588;28;20033;-80
2022/03/17 19:25:56;;;;;;;12.98;2.90;;;;;;;;;;5032763;28;20041;-79
2022/03/17 19:28:23;;;;;;;9.85;2.63;;;;;;;;;;5045376;28;20045;-79
2022/03/17 19:30:55;;;;;;;12.00;2.50;;;;;;;;;;5030809;28;20049;-79
2022/03/17 19:33:26;;;;;;;17.45;2.88;;;;;;;;;;5053812;28;20044;-79
2022/03/17 19:35:55;;;;;;;11.15;3.35;;;;;;;;;;5037650;28;20072;-79
2022/03/17 19:38:23;;;;;;;17.70;2.97;;;;;;;;;;5055445;28;20413;-79